sensor_id;sensor_type;location;lat;lon;timestamp;P1;durP1;ratioP1;P2;durP2;ratioP2
20910;SDS011;10615;42.702;23.314;2022-09-28T00:00:15;22.40;;;19.65;;
20910;SDS011;10615;42.702;23.314;2022-09-28T00:01:17;26.17;;;19.63;;
20910;SDS011;10615;42.702;23.314;2022-09-28T00:02:19;23.75;;;20.50;;
20910;SDS011;10615;42.702;23.314;2022-09-28T00:03:20;23.35;;;19.65;;
20910;SDS011;10615;42.702;23.314;2022-09-28T00:04:21;23.55;;;19.45;;
20910;SDS011;10615;42.702;23.314;2022-09-28T00:05:22;25.60;;;20.02;;
20910;SDS011;10615;42.702;23.314;2022-09-28T00:06:27;26.67;;;20.85;;
20910;SDS011;10615;42.702;23.314;2022-09-28T00:07:29;25.77;;;20.88;;
20910;SDS011;10615;42.702;23.314;2022-09-28T00:08:29;36.88;;;20.77;;
20910;SDS011;10615;42.702;23.314;2022-09-28T00:09:30;23.75;;;20.48;;
20910;SDS011;10615;42.702;23.314;2022-09-28T00:10:31;25.90;;;21.02;;
20910;SDS011;10615;42.702;23.314;2022-09-28T00:11:31;27.60;;;20.33;;
20910;SDS011;10615;42.702;23.314;2022-09-28T00:12:32;23.85;;;19.67;;
20910;SDS011;10615;42.702;23.314;2022-09-28T00:13:33;23.90;;;19.92;;
20910;SDS011;10615;42.702;23.314;2022-09-28T00:14:34;25.08;;;20.23;;
20910;SDS011;10615;42.702;23.314;2022-09-28T00:15:36;23.65;;;19.52;;
20910;SDS011;10615;42.702;23.314;2022-09-28T00:16:37;29.00;;;20.75;;
20910;SDS011;10615;42.702;23.314;2022-09-28T00:17:39;26.42;;;21.10;;
20910;SDS011;10615;42.702;23.314;2022-09-28T00:18:40;33.35;;;19.77;;
20910;SDS011;10615;42.702;23.314;2022-09-28T00:19:42;34.70;;;21.60;;
20910;SDS011;10615;42.702;23.314;2022-09-28T00:20:43;26.67;;;20.95;;
20910;SDS011;10615;42.702;23.314;2022-09-28T00:21:44;24.42;;;20.83;;
20910;SDS011;10615;42.702;23.314;2022-09-28T00:22:45;25.83;;;19.83;;
20910;SDS011;10615;42.702;23.314;2022-09-28T00:23:45;21.88;;;19.58;;
20910;SDS011;10615;42.702;23.314;2022-09-28T00:25:05;24.17;;;20.40;;
20910;SDS011;10615;42.702;23.314;2022-09-28T00:26:06;24.98;;;20.17;;
20910;SDS011;10615;42.702;23.314;2022-09-28T00:27:07;26.20;;;21.10;;
20910;SDS011;10615;42.702;23.314;2022-09-28T00:28:08;23.45;;;20.67;;
20910;SDS011;10615;42.702;23.314;2022-09-28T00:29:13;24.17;;;20.02;;
20910;SDS011;10615;42.702;23.314;2022-09-28T00:30:33;22.45;;;19.48;;
20910;SDS011;10615;42.702;23.314;2022-09-28T00:31:34;22.85;;;19.30;;
20910;SDS011;10615;42.702;23.314;2022-09-28T00:32:34;21.77;;;19.33;;
20910;SDS011;10615;42.702;23.314;2022-09-28T00:33:35;20.90;;;18.15;;
20910;SDS011;10615;42.702;23.314;2022-09-28T00:34:36;24.27;;;19.27;;
20910;SDS011;10615;42.702;23.314;2022-09-28T00:35:40;24.20;;;19.90;;
20910;SDS011;10615;42.702;23.314;2022-09-28T00:36:42;21.98;;;19.52;;
20910;SDS011;10615;42.702;23.314;2022-09-28T00:37:45;23.83;;;19.30;;
20910;SDS011;10615;42.702;23.314;2022-09-28T00:38:48;22.58;;;19.13;;
20910;SDS011;10615;42.702;23.314;2022-09-28T00:39:48;21.35;;;19.05;;
20910;SDS011;10615;42.702;23.314;2022-09-28T00:40:49;20.90;;;18.70;;
20910;SDS011;10615;42.702;23.314;2022-09-28T00:41:50;24.35;;;19.40;;
20910;SDS011;10615;42.702;23.314;2022-09-28T00:42:50;21.48;;;18.83;;
20910;SDS011;10615;42.702;23.314;2022-09-28T00:43:51;20.50;;;18.35;;
20910;SDS011;10615;42.702;23.314;2022-09-28T00:44:53;26.48;;;19.65;;
20910;SDS011;10615;42.702;23.314;2022-09-28T00:46:03;22.08;;;18.52;;
20910;SDS011;10615;42.702;23.314;2022-09-28T00:47:14;22.25;;;18.88;;
20910;SDS011;10615;42.702;23.314;2022-09-28T00:48:16;21.58;;;18.05;;
20910;SDS011;10615;42.702;23.314;2022-09-28T00:49:18;21.05;;;18.63;;
20910;SDS011;10615;42.702;23.314;2022-09-28T00:51:25;21.17;;;18.23;;
20910;SDS011;10615;42.702;23.314;2022-09-28T00:52:40;20.98;;;18.27;;
20910;SDS011;10615;42.702;23.314;2022-09-28T00:54:01;19.98;;;17.85;;
20910;SDS011;10615;42.702;23.314;2022-09-28T00:55:07;23.65;;;18.63;;
20910;SDS011;10615;42.702;23.314;2022-09-28T00:56:13;24.02;;;19.08;;
20910;SDS011;10615;42.702;23.314;2022-09-28T00:57:17;69.05;;;21.35;;
20910;SDS011;10615;42.702;23.314;2022-09-28T00:58:24;41.20;;;19.50;;
20910;SDS011;10615;42.702;23.314;2022-09-28T00:59:27;29.90;;;19.45;;
20910;SDS011;10615;42.702;23.314;2022-09-28T01:00:28;50.97;;;19.80;;
20910;SDS011;10615;42.702;23.314;2022-09-28T01:01:29;69.82;;;20.10;;
20910;SDS011;10615;42.702;23.314;2022-09-28T01:02:30;26.75;;;18.75;;
20910;SDS011;10615;42.702;23.314;2022-09-28T01:03:31;35.70;;;19.30;;
20910;SDS011;10615;42.702;23.314;2022-09-28T01:04:32;29.55;;;18.17;;
20910;SDS011;10615;42.702;23.314;2022-09-28T01:05:33;27.17;;;18.20;;
20910;SDS011;10615;42.702;23.314;2022-09-28T01:06:35;20.08;;;17.35;;
20910;SDS011;10615;42.702;23.314;2022-09-28T01:07:37;22.95;;;18.15;;
20910;SDS011;10615;42.702;23.314;2022-09-28T01:08:38;33.72;;;18.23;;
20910;SDS011;10615;42.702;23.314;2022-09-28T01:09:39;29.83;;;17.55;;
20910;SDS011;10615;42.702;23.314;2022-09-28T01:10:40;27.25;;;17.80;;
20910;SDS011;10615;42.702;23.314;2022-09-28T01:11:42;65.03;;;17.70;;
20910;SDS011;10615;42.702;23.314;2022-09-28T01:12:43;55.53;;;17.83;;
20910;SDS011;10615;42.702;23.314;2022-09-28T01:13:44;41.03;;;17.25;;
20910;SDS011;10615;42.702;23.314;2022-09-28T01:14:47;27.35;;;17.40;;
20910;SDS011;10615;42.702;23.314;2022-09-28T01:16:02;43.78;;;17.10;;
20910;SDS011;10615;42.702;23.314;2022-09-28T01:17:27;23.75;;;16.52;;
20910;SDS011;10615;42.702;23.314;2022-09-28T01:18:43;18.35;;;16.45;;
20910;SDS011;10615;42.702;23.314;2022-09-28T01:21:15;58.40;;;17.27;;
20910;SDS011;10615;42.702;23.314;2022-09-28T01:23:31;26.30;;;16.55;;
20910;SDS011;10615;42.702;23.314;2022-09-28T01:24:42;39.63;;;16.77;;
20910;SDS011;10615;42.702;23.314;2022-09-28T01:28:13;34.50;;;16.20;;
20910;SDS011;10615;42.702;23.314;2022-09-28T01:29:18;21.33;;;15.23;;
20910;SDS011;10615;42.702;23.314;2022-09-28T01:30:21;29.30;;;15.30;;
20910;SDS011;10615;42.702;23.314;2022-09-28T01:31:22;19.60;;;15.10;;
20910;SDS011;10615;42.702;23.314;2022-09-28T01:33:49;17.80;;;14.52;;
20910;SDS011;10615;42.702;23.314;2022-09-28T01:37:10;26.27;;;15.50;;
20910;SDS011;10615;42.702;23.314;2022-09-28T01:39:29;35.00;;;14.07;;
20910;SDS011;10615;42.702;23.314;2022-09-28T01:40:35;23.08;;;13.68;;
20910;SDS011;10615;42.702;23.314;2022-09-28T01:41:38;16.10;;;13.25;;
20910;SDS011;10615;42.702;23.314;2022-09-28T01:42:41;15.80;;;13.95;;
20910;SDS011;10615;42.702;23.314;2022-09-28T01:43:47;19.17;;;13.68;;
20910;SDS011;10615;42.702;23.314;2022-09-28T01:44:54;17.42;;;14.32;;
20910;SDS011;10615;42.702;23.314;2022-09-28T01:46:12;18.35;;;14.25;;
20910;SDS011;10615;42.702;23.314;2022-09-28T01:47:21;17.73;;;13.75;;
20910;SDS011;10615;42.702;23.314;2022-09-28T01:48:25;22.85;;;14.65;;
20910;SDS011;10615;42.702;23.314;2022-09-28T01:49:41;19.58;;;13.93;;
20910;SDS011;10615;42.702;23.314;2022-09-28T01:50:46;18.48;;;14.50;;
20910;SDS011;10615;42.702;23.314;2022-09-28T01:51:54;20.70;;;14.30;;
20910;SDS011;10615;42.702;23.314;2022-09-28T01:53:12;21.08;;;14.30;;
20910;SDS011;10615;42.702;23.314;2022-09-28T01:55:53;20.20;;;14.52;;
20910;SDS011;10615;42.702;23.314;2022-09-28T01:56:59;20.25;;;15.20;;
20910;SDS011;10615;42.702;23.314;2022-09-28T01:59:31;20.92;;;15.15;;
20910;SDS011;10615;42.702;23.314;2022-09-28T02:00:35;21.05;;;16.05;;
20910;SDS011;10615;42.702;23.314;2022-09-28T02:01:47;19.80;;;16.15;;
20910;SDS011;10615;42.702;23.314;2022-09-28T02:03:10;19.90;;;14.90;;
20910;SDS011;10615;42.702;23.314;2022-09-28T02:04:29;27.80;;;17.52;;
20910;SDS011;10615;42.702;23.314;2022-09-28T02:05:36;18.20;;;15.48;;
20910;SDS011;10615;42.702;23.314;2022-09-28T02:06:43;22.42;;;16.90;;
20910;SDS011;10615;42.702;23.314;2022-09-28T02:09:00;20.33;;;16.40;;
20910;SDS011;10615;42.702;23.314;2022-09-28T02:10:06;19.92;;;16.42;;
20910;SDS011;10615;42.702;23.314;2022-09-28T02:11:13;32.33;;;17.70;;
20910;SDS011;10615;42.702;23.314;2022-09-28T02:12:17;33.72;;;17.30;;
20910;SDS011;10615;42.702;23.314;2022-09-28T02:13:23;31.77;;;17.05;;
20910;SDS011;10615;42.702;23.314;2022-09-28T02:14:30;26.08;;;16.90;;
20910;SDS011;10615;42.702;23.314;2022-09-28T02:15:37;21.48;;;18.23;;
20910;SDS011;10615;42.702;23.314;2022-09-28T02:16:58;21.65;;;17.48;;
20910;SDS011;10615;42.702;23.314;2022-09-28T02:18:00;19.23;;;16.30;;
20910;SDS011;10615;42.702;23.314;2022-09-28T02:19:01;25.65;;;16.95;;
20910;SDS011;10615;42.702;23.314;2022-09-28T02:20:03;24.80;;;17.25;;
20910;SDS011;10615;42.702;23.314;2022-09-28T02:21:26;17.73;;;15.60;;
20910;SDS011;10615;42.702;23.314;2022-09-28T02:22:42;17.08;;;15.10;;
20910;SDS011;10615;42.702;23.314;2022-09-28T02:23:51;17.10;;;15.30;;
20910;SDS011;10615;42.702;23.314;2022-09-28T02:26:11;18.92;;;15.40;;
20910;SDS011;10615;42.702;23.314;2022-09-28T02:27:18;19.60;;;15.32;;
20910;SDS011;10615;42.702;23.314;2022-09-28T02:28:25;19.10;;;15.88;;
20910;SDS011;10615;42.702;23.314;2022-09-28T02:29:25;21.48;;;17.30;;
20910;SDS011;10615;42.702;23.314;2022-09-28T02:30:26;18.48;;;15.95;;
20910;SDS011;10615;42.702;23.314;2022-09-28T02:31:29;21.17;;;15.30;;
20910;SDS011;10615;42.702;23.314;2022-09-28T02:32:30;19.88;;;16.45;;
20910;SDS011;10615;42.702;23.314;2022-09-28T02:33:37;20.58;;;16.85;;
20910;SDS011;10615;42.702;23.314;2022-09-28T02:34:41;21.27;;;15.98;;
20910;SDS011;10615;42.702;23.314;2022-09-28T02:35:41;18.17;;;15.27;;
20910;SDS011;10615;42.702;23.314;2022-09-28T02:36:42;17.13;;;15.32;;
20910;SDS011;10615;42.702;23.314;2022-09-28T02:37:44;23.52;;;16.67;;
20910;SDS011;10615;42.702;23.314;2022-09-28T02:38:45;31.73;;;16.70;;
20910;SDS011;10615;42.702;23.314;2022-09-28T02:39:46;24.85;;;16.42;;
20910;SDS011;10615;42.702;23.314;2022-09-28T02:40:55;22.77;;;16.67;;
20910;SDS011;10615;42.702;23.314;2022-09-28T02:42:26;17.30;;;15.15;;
20910;SDS011;10615;42.702;23.314;2022-09-28T02:45:58;18.85;;;16.55;;
20910;SDS011;10615;42.702;23.314;2022-09-28T02:50:14;19.67;;;16.63;;
20910;SDS011;10615;42.702;23.314;2022-09-28T02:59:23;22.42;;;16.23;;
20910;SDS011;10615;42.702;23.314;2022-09-28T03:02:17;19.63;;;15.57;;
20910;SDS011;10615;42.702;23.314;2022-09-28T03:04:00;20.98;;;16.40;;
20910;SDS011;10615;42.702;23.314;2022-09-28T03:06:13;18.45;;;16.00;;
20910;SDS011;10615;42.702;23.314;2022-09-28T03:07:16;20.42;;;15.50;;
20910;SDS011;10615;42.702;23.314;2022-09-28T03:09:35;20.85;;;15.43;;
20910;SDS011;10615;42.702;23.314;2022-09-28T03:11:27;23.45;;;16.65;;
20910;SDS011;10615;42.702;23.314;2022-09-28T03:12:12;22.95;;;16.73;;
20910;SDS011;10615;42.702;23.314;2022-09-28T03:13:15;20.88;;;16.48;;
20910;SDS011;10615;42.702;23.314;2022-09-28T03:14:17;27.95;;;17.42;;
20910;SDS011;10615;42.702;23.314;2022-09-28T03:15:22;24.27;;;17.13;;
20910;SDS011;10615;42.702;23.314;2022-09-28T03:16:25;34.80;;;18.20;;
20910;SDS011;10615;42.702;23.314;2022-09-28T03:17:27;30.23;;;17.00;;
20910;SDS011;10615;42.702;23.314;2022-09-28T03:18:27;24.63;;;17.13;;
20910;SDS011;10615;42.702;23.314;2022-09-28T03:19:32;22.42;;;16.95;;
20910;SDS011;10615;42.702;23.314;2022-09-28T03:20:33;23.35;;;17.65;;
20910;SDS011;10615;42.702;23.314;2022-09-28T03:21:34;26.27;;;18.20;;
20910;SDS011;10615;42.702;23.314;2022-09-28T03:22:34;26.73;;;17.63;;
20910;SDS011;10615;42.702;23.314;2022-09-28T03:23:35;22.45;;;17.23;;
20910;SDS011;10615;42.702;23.314;2022-09-28T03:24:36;24.08;;;17.63;;
20910;SDS011;10615;42.702;23.314;2022-09-28T03:25:36;23.67;;;17.35;;
20910;SDS011;10615;42.702;23.314;2022-09-28T03:26:37;22.85;;;17.40;;
20910;SDS011;10615;42.702;23.314;2022-09-28T03:27:38;21.40;;;17.13;;
20910;SDS011;10615;42.702;23.314;2022-09-28T03:28:39;22.25;;;16.88;;
20910;SDS011;10615;42.702;23.314;2022-09-28T03:29:40;23.23;;;16.25;;
20910;SDS011;10615;42.702;23.314;2022-09-28T03:30:40;22.42;;;17.63;;
20910;SDS011;10615;42.702;23.314;2022-09-28T03:31:42;22.15;;;17.20;;
20910;SDS011;10615;42.702;23.314;2022-09-28T03:32:43;20.73;;;17.17;;
20910;SDS011;10615;42.702;23.314;2022-09-28T03:33:44;22.00;;;17.17;;
20910;SDS011;10615;42.702;23.314;2022-09-28T03:34:44;24.48;;;17.08;;
20910;SDS011;10615;42.702;23.314;2022-09-28T03:35:48;22.30;;;17.00;;
20910;SDS011;10615;42.702;23.314;2022-09-28T03:36:49;22.35;;;17.23;;
20910;SDS011;10615;42.702;23.314;2022-09-28T03:37:53;22.00;;;16.95;;
20910;SDS011;10615;42.702;23.314;2022-09-28T03:38:54;23.65;;;16.98;;
20910;SDS011;10615;42.702;23.314;2022-09-28T03:39:55;22.17;;;16.90;;
20910;SDS011;10615;42.702;23.314;2022-09-28T03:40:56;22.67;;;17.00;;
20910;SDS011;10615;42.702;23.314;2022-09-28T03:41:59;22.17;;;17.05;;
20910;SDS011;10615;42.702;23.314;2022-09-28T03:42:59;20.30;;;16.73;;
20910;SDS011;10615;42.702;23.314;2022-09-28T03:44:00;20.02;;;16.40;;
20910;SDS011;10615;42.702;23.314;2022-09-28T03:45:01;22.17;;;16.58;;
20910;SDS011;10615;42.702;23.314;2022-09-28T03:46:02;19.88;;;16.55;;
20910;SDS011;10615;42.702;23.314;2022-09-28T03:47:03;22.00;;;17.08;;
20910;SDS011;10615;42.702;23.314;2022-09-28T03:48:06;22.40;;;16.65;;
20910;SDS011;10615;42.702;23.314;2022-09-28T03:49:07;20.70;;;15.88;;
20910;SDS011;10615;42.702;23.314;2022-09-28T03:50:08;21.60;;;16.77;;
20910;SDS011;10615;42.702;23.314;2022-09-28T03:51:09;21.50;;;17.65;;
20910;SDS011;10615;42.702;23.314;2022-09-28T03:52:11;21.90;;;17.40;;
20910;SDS011;10615;42.702;23.314;2022-09-28T03:53:13;25.33;;;19.20;;
20910;SDS011;10615;42.702;23.314;2022-09-28T03:54:13;23.55;;;18.50;;
20910;SDS011;10615;42.702;23.314;2022-09-28T03:55:14;23.08;;;18.25;;
20910;SDS011;10615;42.702;23.314;2022-09-28T03:56:15;24.02;;;17.92;;
20910;SDS011;10615;42.702;23.314;2022-09-28T03:57:16;27.20;;;18.98;;
20910;SDS011;10615;42.702;23.314;2022-09-28T03:58:17;24.40;;;18.08;;
20910;SDS011;10615;42.702;23.314;2022-09-28T03:59:18;25.77;;;19.02;;
20910;SDS011;10615;42.702;23.314;2022-09-28T04:00:18;23.15;;;17.48;;
20910;SDS011;10615;42.702;23.314;2022-09-28T04:01:19;22.92;;;18.00;;
20910;SDS011;10615;42.702;23.314;2022-09-28T04:02:20;24.55;;;18.65;;
20910;SDS011;10615;42.702;23.314;2022-09-28T04:03:21;27.17;;;18.65;;
20910;SDS011;10615;42.702;23.314;2022-09-28T04:04:21;23.60;;;18.00;;
20910;SDS011;10615;42.702;23.314;2022-09-28T04:05:22;29.35;;;19.58;;
20910;SDS011;10615;42.702;23.314;2022-09-28T04:06:23;24.92;;;18.38;;
20910;SDS011;10615;42.702;23.314;2022-09-28T04:07:24;26.27;;;19.08;;
20910;SDS011;10615;42.702;23.314;2022-09-28T04:08:25;25.58;;;19.50;;
20910;SDS011;10615;42.702;23.314;2022-09-28T04:09:26;26.85;;;19.10;;
20910;SDS011;10615;42.702;23.314;2022-09-28T04:10:27;25.80;;;18.98;;
20910;SDS011;10615;42.702;23.314;2022-09-28T04:11:27;24.58;;;19.13;;
20910;SDS011;10615;42.702;23.314;2022-09-28T04:12:28;31.25;;;19.13;;
20910;SDS011;10615;42.702;23.314;2022-09-28T04:13:29;24.90;;;18.58;;
20910;SDS011;10615;42.702;23.314;2022-09-28T04:14:30;26.58;;;20.27;;
20910;SDS011;10615;42.702;23.314;2022-09-28T04:15:31;26.42;;;20.30;;
20910;SDS011;10615;42.702;23.314;2022-09-28T04:16:31;29.95;;;21.15;;
20910;SDS011;10615;42.702;23.314;2022-09-28T04:17:32;24.20;;;19.92;;
20910;SDS011;10615;42.702;23.314;2022-09-28T04:18:33;24.30;;;18.40;;
20910;SDS011;10615;42.702;23.314;2022-09-28T04:19:34;24.63;;;18.33;;
20910;SDS011;10615;42.702;23.314;2022-09-28T04:20:34;26.40;;;18.50;;
20910;SDS011;10615;42.702;23.314;2022-09-28T04:21:35;25.63;;;17.10;;
20910;SDS011;10615;42.702;23.314;2022-09-28T04:22:36;23.35;;;18.15;;
20910;SDS011;10615;42.702;23.314;2022-09-28T04:23:37;26.13;;;17.92;;
20910;SDS011;10615;42.702;23.314;2022-09-28T04:24:39;24.42;;;17.55;;
20910;SDS011;10615;42.702;23.314;2022-09-28T04:25:42;22.88;;;16.98;;
20910;SDS011;10615;42.702;23.314;2022-09-28T04:26:46;25.15;;;17.98;;
20910;SDS011;10615;42.702;23.314;2022-09-28T04:27:48;27.95;;;17.85;;
20910;SDS011;10615;42.702;23.314;2022-09-28T04:29:10;27.20;;;17.98;;
20910;SDS011;10615;42.702;23.314;2022-09-28T04:30:17;26.45;;;18.77;;
20910;SDS011;10615;42.702;23.314;2022-09-28T04:31:19;23.23;;;18.20;;
20910;SDS011;10615;42.702;23.314;2022-09-28T04:32:21;25.50;;;17.58;;
20910;SDS011;10615;42.702;23.314;2022-09-28T04:33:22;24.10;;;17.83;;
20910;SDS011;10615;42.702;23.314;2022-09-28T04:34:23;22.40;;;17.08;;
20910;SDS011;10615;42.702;23.314;2022-09-28T04:35:23;24.95;;;17.45;;
20910;SDS011;10615;42.702;23.314;2022-09-28T04:36:24;24.70;;;17.55;;
20910;SDS011;10615;42.702;23.314;2022-09-28T04:37:25;25.08;;;18.05;;
20910;SDS011;10615;42.702;23.314;2022-09-28T04:38:25;23.60;;;17.40;;
20910;SDS011;10615;42.702;23.314;2022-09-28T04:39:26;25.27;;;17.45;;
20910;SDS011;10615;42.702;23.314;2022-09-28T04:40:27;23.90;;;17.05;;
20910;SDS011;10615;42.702;23.314;2022-09-28T04:41:27;20.77;;;16.52;;
20910;SDS011;10615;42.702;23.314;2022-09-28T04:42:28;25.45;;;15.43;;
20910;SDS011;10615;42.702;23.314;2022-09-28T04:43:29;19.33;;;14.60;;
20910;SDS011;10615;42.702;23.314;2022-09-28T04:44:29;20.73;;;14.73;;
20910;SDS011;10615;42.702;23.314;2022-09-28T04:45:30;22.13;;;15.30;;
20910;SDS011;10615;42.702;23.314;2022-09-28T04:46:31;20.27;;;15.20;;
20910;SDS011;10615;42.702;23.314;2022-09-28T04:47:32;22.45;;;15.50;;
20910;SDS011;10615;42.702;23.314;2022-09-28T04:48:32;21.65;;;15.35;;
20910;SDS011;10615;42.702;23.314;2022-09-28T04:49:33;20.02;;;15.20;;
20910;SDS011;10615;42.702;23.314;2022-09-28T04:50:37;27.08;;;14.88;;
20910;SDS011;10615;42.702;23.314;2022-09-28T04:51:38;22.27;;;14.40;;
20910;SDS011;10615;42.702;23.314;2022-09-28T04:52:38;21.55;;;15.18;;
20910;SDS011;10615;42.702;23.314;2022-09-28T04:53:39;20.73;;;15.30;;
20910;SDS011;10615;42.702;23.314;2022-09-28T04:54:39;22.17;;;15.63;;
20910;SDS011;10615;42.702;23.314;2022-09-28T04:55:40;21.13;;;14.90;;
20910;SDS011;10615;42.702;23.314;2022-09-28T04:56:42;25.98;;;15.95;;
20910;SDS011;10615;42.702;23.314;2022-09-28T04:57:42;24.25;;;15.43;;
20910;SDS011;10615;42.702;23.314;2022-09-28T04:58:43;21.85;;;14.93;;
20910;SDS011;10615;42.702;23.314;2022-09-28T04:59:44;23.05;;;15.75;;
20910;SDS011;10615;42.702;23.314;2022-09-28T05:00:45;22.88;;;14.93;;
20910;SDS011;10615;42.702;23.314;2022-09-28T05:01:45;30.80;;;22.58;;
20910;SDS011;10615;42.702;23.314;2022-09-28T05:02:46;25.35;;;18.85;;
20910;SDS011;10615;42.702;23.314;2022-09-28T05:03:47;26.13;;;16.08;;
20910;SDS011;10615;42.702;23.314;2022-09-28T05:04:47;27.98;;;17.83;;
20910;SDS011;10615;42.702;23.314;2022-09-28T05:05:48;26.83;;;16.90;;
20910;SDS011;10615;42.702;23.314;2022-09-28T05:06:49;26.65;;;15.27;;
20910;SDS011;10615;42.702;23.314;2022-09-28T05:07:49;22.85;;;16.42;;
20910;SDS011;10615;42.702;23.314;2022-09-28T05:08:50;24.92;;;16.45;;
20910;SDS011;10615;42.702;23.314;2022-09-28T05:09:51;24.80;;;15.63;;
20910;SDS011;10615;42.702;23.314;2022-09-28T05:10:57;25.40;;;15.68;;
20910;SDS011;10615;42.702;23.314;2022-09-28T05:12:02;25.00;;;15.48;;
20910;SDS011;10615;42.702;23.314;2022-09-28T05:13:03;23.45;;;15.60;;
20910;SDS011;10615;42.702;23.314;2022-09-28T05:14:03;26.25;;;14.90;;
20910;SDS011;10615;42.702;23.314;2022-09-28T05:15:05;23.83;;;15.65;;
20910;SDS011;10615;42.702;23.314;2022-09-28T05:16:06;26.73;;;16.55;;
20910;SDS011;10615;42.702;23.314;2022-09-28T05:17:08;24.88;;;16.08;;
20910;SDS011;10615;42.702;23.314;2022-09-28T05:18:09;27.50;;;15.13;;
20910;SDS011;10615;42.702;23.314;2022-09-28T05:19:10;27.08;;;16.88;;
20910;SDS011;10615;42.702;23.314;2022-09-28T05:20:11;24.15;;;17.80;;
20910;SDS011;10615;42.702;23.314;2022-09-28T05:21:13;22.60;;;16.10;;
20910;SDS011;10615;42.702;23.314;2022-09-28T05:22:14;27.08;;;18.02;;
20910;SDS011;10615;42.702;23.314;2022-09-28T05:23:15;23.48;;;17.52;;
20910;SDS011;10615;42.702;23.314;2022-09-28T05:24:16;29.90;;;17.75;;
20910;SDS011;10615;42.702;23.314;2022-09-28T05:25:17;27.15;;;17.25;;
20910;SDS011;10615;42.702;23.314;2022-09-28T05:26:18;24.40;;;16.73;;
20910;SDS011;10615;42.702;23.314;2022-09-28T05:27:19;21.80;;;15.98;;
20910;SDS011;10615;42.702;23.314;2022-09-28T05:28:25;24.52;;;16.00;;
20910;SDS011;10615;42.702;23.314;2022-09-28T05:29:26;23.00;;;16.98;;
20910;SDS011;10615;42.702;23.314;2022-09-28T05:30:27;23.58;;;16.75;;
20910;SDS011;10615;42.702;23.314;2022-09-28T05:31:28;21.20;;;16.85;;
20910;SDS011;10615;42.702;23.314;2022-09-28T05:32:29;24.65;;;16.50;;
20910;SDS011;10615;42.702;23.314;2022-09-28T05:33:30;29.05;;;20.00;;
20910;SDS011;10615;42.702;23.314;2022-09-28T05:34:31;25.58;;;19.85;;
20910;SDS011;10615;42.702;23.314;2022-09-28T05:35:32;29.23;;;23.08;;
20910;SDS011;10615;42.702;23.314;2022-09-28T05:36:33;27.13;;;20.70;;
20910;SDS011;10615;42.702;23.314;2022-09-28T05:37:34;25.17;;;20.13;;
20910;SDS011;10615;42.702;23.314;2022-09-28T05:38:35;28.42;;;21.00;;
20910;SDS011;10615;42.702;23.314;2022-09-28T05:39:36;27.70;;;20.73;;
20910;SDS011;10615;42.702;23.314;2022-09-28T05:40:37;27.45;;;19.83;;
20910;SDS011;10615;42.702;23.314;2022-09-28T05:41:37;24.25;;;19.35;;
20910;SDS011;10615;42.702;23.314;2022-09-28T05:42:38;28.88;;;20.20;;
20910;SDS011;10615;42.702;23.314;2022-09-28T05:43:39;26.67;;;20.50;;
20910;SDS011;10615;42.702;23.314;2022-09-28T05:44:40;27.90;;;20.75;;
20910;SDS011;10615;42.702;23.314;2022-09-28T05:45:41;27.50;;;20.50;;
20910;SDS011;10615;42.702;23.314;2022-09-28T05:46:41;30.67;;;22.85;;
20910;SDS011;10615;42.702;23.314;2022-09-28T05:47:42;31.40;;;22.92;;
20910;SDS011;10615;42.702;23.314;2022-09-28T05:48:45;29.75;;;21.65;;
20910;SDS011;10615;42.702;23.314;2022-09-28T05:49:45;29.20;;;23.52;;
20910;SDS011;10615;42.702;23.314;2022-09-28T05:50:49;29.38;;;21.20;;
20910;SDS011;10615;42.702;23.314;2022-09-28T05:51:51;31.30;;;22.98;;
20910;SDS011;10615;42.702;23.314;2022-09-28T05:52:59;37.55;;;22.27;;
20910;SDS011;10615;42.702;23.314;2022-09-28T05:54:01;30.25;;;21.65;;
20910;SDS011;10615;42.702;23.314;2022-09-28T05:55:01;24.75;;;20.50;;
20910;SDS011;10615;42.702;23.314;2022-09-28T05:56:02;30.55;;;20.75;;
20910;SDS011;10615;42.702;23.314;2022-09-28T05:57:03;28.83;;;20.23;;
20910;SDS011;10615;42.702;23.314;2022-09-28T05:58:05;27.20;;;22.05;;
20910;SDS011;10615;42.702;23.314;2022-09-28T05:59:06;26.77;;;19.92;;
20910;SDS011;10615;42.702;23.314;2022-09-28T06:00:07;38.28;;;29.40;;
20910;SDS011;10615;42.702;23.314;2022-09-28T06:01:08;40.70;;;28.35;;
20910;SDS011;10615;42.702;23.314;2022-09-28T06:02:09;37.50;;;28.80;;
20910;SDS011;10615;42.702;23.314;2022-09-28T06:03:10;28.77;;;22.85;;
20910;SDS011;10615;42.702;23.314;2022-09-28T06:04:12;31.52;;;21.25;;
20910;SDS011;10615;42.702;23.314;2022-09-28T06:05:15;38.15;;;28.42;;
20910;SDS011;10615;42.702;23.314;2022-09-28T06:06:15;39.97;;;27.23;;
20910;SDS011;10615;42.702;23.314;2022-09-28T06:07:16;36.30;;;26.05;;
20910;SDS011;10615;42.702;23.314;2022-09-28T06:08:17;35.97;;;27.10;;
20910;SDS011;10615;42.702;23.314;2022-09-28T06:09:18;38.72;;;27.15;;
20910;SDS011;10615;42.702;23.314;2022-09-28T06:10:19;40.60;;;30.15;;
20910;SDS011;10615;42.702;23.314;2022-09-28T06:11:19;32.30;;;23.08;;
20910;SDS011;10615;42.702;23.314;2022-09-28T06:12:20;33.88;;;23.88;;
20910;SDS011;10615;42.702;23.314;2022-09-28T06:13:21;33.63;;;23.13;;
20910;SDS011;10615;42.702;23.314;2022-09-28T06:14:21;32.80;;;23.00;;
20910;SDS011;10615;42.702;23.314;2022-09-28T06:15:23;32.38;;;21.92;;
20910;SDS011;10615;42.702;23.314;2022-09-28T06:16:25;37.03;;;23.45;;
20910;SDS011;10615;42.702;23.314;2022-09-28T06:17:26;32.50;;;22.17;;
20910;SDS011;10615;42.702;23.314;2022-09-28T06:18:26;31.05;;;21.83;;
20910;SDS011;10615;42.702;23.314;2022-09-28T06:19:27;29.88;;;22.92;;
20910;SDS011;10615;42.702;23.314;2022-09-28T06:20:28;31.65;;;23.35;;
20910;SDS011;10615;42.702;23.314;2022-09-28T06:21:33;32.78;;;23.27;;
20910;SDS011;10615;42.702;23.314;2022-09-28T06:22:35;33.67;;;22.45;;
20910;SDS011;10615;42.702;23.314;2022-09-28T06:23:36;33.67;;;22.52;;
20910;SDS011;10615;42.702;23.314;2022-09-28T06:24:37;31.98;;;23.23;;
20910;SDS011;10615;42.702;23.314;2022-09-28T06:25:37;30.25;;;22.05;;
20910;SDS011;10615;42.702;23.314;2022-09-28T06:26:38;35.25;;;24.48;;
20910;SDS011;10615;42.702;23.314;2022-09-28T06:27:39;31.25;;;24.20;;
20910;SDS011;10615;42.702;23.314;2022-09-28T06:28:41;34.63;;;21.70;;
20910;SDS011;10615;42.702;23.314;2022-09-28T06:29:42;35.38;;;23.83;;
20910;SDS011;10615;42.702;23.314;2022-09-28T06:30:42;36.92;;;23.10;;
20910;SDS011;10615;42.702;23.314;2022-09-28T06:31:44;29.67;;;22.50;;
20910;SDS011;10615;42.702;23.314;2022-09-28T06:32:46;33.60;;;21.92;;
20910;SDS011;10615;42.702;23.314;2022-09-28T06:33:47;27.52;;;20.77;;
20910;SDS011;10615;42.702;23.314;2022-09-28T06:34:48;29.58;;;21.35;;
20910;SDS011;10615;42.702;23.314;2022-09-28T06:35:48;26.83;;;20.50;;
20910;SDS011;10615;42.702;23.314;2022-09-28T06:36:51;42.78;;;25.20;;
20910;SDS011;10615;42.702;23.314;2022-09-28T06:37:52;40.58;;;23.67;;